createdAt,value
2023-04-02T00:01:01.891Z,7.70
2023-04-02T00:03:44.682Z,7.60
2023-04-02T00:06:40.060Z,7.60
2023-04-02T00:09:22.122Z,7.60
2023-04-02T00:11:55.902Z,7.60
2023-04-02T00:14:34.377Z,7.60
2023-04-02T00:17:05.498Z,7.60
2023-04-02T00:19:41.341Z,7.60
2023-04-02T00:22:16.162Z,7.60
2023-04-02T00:24:43.289Z,7.60
2023-04-02T00:27:14.032Z,7.60
2023-04-02T00:29:58.708Z,7.60
2023-04-02T00:32:31.050Z,7.50
2023-04-02T00:34:59.920Z,7.50
2023-04-02T00:37:39.216Z,7.60
2023-04-02T00:40:17.457Z,7.60
2023-04-02T00:42:46.534Z,7.60
2023-04-02T00:45:37.410Z,7.60
2023-04-02T00:48:32.687Z,7.60
2023-04-02T00:51:15.254Z,7.60
2023-04-02T00:53:47.125Z,7.60
2023-04-02T00:56:33.835Z,7.60
2023-04-02T00:59:01.013Z,7.60
2023-04-02T01:01:37.093Z,7.60
2023-04-02T01:04:05.825Z,7.60
2023-04-02T01:06:37.596Z,7.60
2023-04-02T01:09:32.253Z,7.60
2023-04-02T01:12:12.427Z,7.60
2023-04-02T01:15:20.875Z,7.70
2023-04-02T01:18:31.502Z,7.60
2023-04-02T01:21:10.471Z,7.60
2023-04-02T01:24:06.239Z,7.60
2023-04-02T01:27:28.754Z,7.60
2023-04-02T01:29:59.299Z,7.70
2023-04-02T01:32:29.890Z,7.70
2023-04-02T01:34:58.423Z,7.60
2023-04-02T01:38:10.771Z,7.60
2023-04-02T01:41:09.894Z,7.60
2023-04-02T01:44:09.622Z,7.50
2023-04-02T01:46:41.583Z,7.50
2023-04-02T01:49:19.886Z,7.50
2023-04-02T01:51:53.149Z,7.60
2023-04-02T01:54:22.050Z,7.50
2023-04-02T01:56:50.521Z,7.40
2023-04-02T01:59:22.513Z,7.40
2023-04-02T02:02:07.940Z,7.40
2023-04-02T02:04:35.332Z,7.40
2023-04-02T02:07:04.303Z,7.40
2023-04-02T02:09:35.810Z,7.40
2023-04-02T02:12:04.463Z,7.40
2023-04-02T02:14:32.180Z,7.40
2023-04-02T02:17:02.861Z,7.40
2023-04-02T02:19:43.829Z,7.40
2023-04-02T02:22:30.469Z,7.40
2023-04-02T02:25:02.134Z,7.40
2023-04-02T02:27:29.147Z,7.30
2023-04-02T02:30:07.616Z,7.30
2023-04-02T02:32:39.928Z,7.30
2023-04-02T02:35:27.408Z,7.30
2023-04-02T02:38:22.629Z,7.30
2023-04-02T02:40:54.310Z,7.40
2023-04-02T02:43:21.609Z,7.40
2023-04-02T02:45:50.674Z,7.40
2023-04-02T02:48:23.948Z,7.40
2023-04-02T02:50:51.659Z,7.40
2023-04-02T02:53:24.661Z,7.50
2023-04-02T02:55:57.411Z,7.40
2023-04-02T02:58:29.044Z,7.40
2023-04-02T03:01:14.692Z,7.40
2023-04-02T03:03:42.151Z,7.50
2023-04-02T03:06:11.786Z,7.50
2023-04-02T03:09:39.434Z,7.50
2023-04-02T03:13:20.499Z,7.50
2023-04-02T03:15:58.716Z,7.60
2023-04-02T03:18:47.241Z,7.50
2023-04-02T03:21:48.921Z,7.50
2023-04-02T03:24:35.462Z,7.50
2023-04-02T03:27:07.362Z,7.60
2023-04-02T03:29:40.541Z,7.60
2023-04-02T03:32:35.504Z,7.50
2023-04-02T03:35:20.713Z,7.50
2023-04-02T03:38:00.442Z,7.40
2023-04-02T03:40:42.487Z,7.40
2023-04-02T03:43:20.799Z,7.40
2023-04-02T03:45:58.886Z,7.40
2023-04-02T03:48:46.418Z,7.40
2023-04-02T03:51:18.794Z,7.40
2023-04-02T03:53:47.032Z,7.40
2023-04-02T03:56:40.040Z,7.40
2023-04-02T03:59:32.671Z,7.40
2023-04-02T04:02:11.119Z,7.40
2023-04-02T04:04:42.206Z,7.40
2023-04-02T04:07:27.704Z,7.40
2023-04-02T04:09:55.800Z,7.40
2023-04-02T04:12:35.282Z,7.50
2023-04-02T04:15:27.291Z,7.50
2023-04-02T04:18:24.619Z,7.50
2023-04-02T04:20:58.385Z,7.50
2023-04-02T04:23:37.444Z,7.50
2023-04-02T04:26:24.878Z,7.50
2023-04-02T04:29:46.627Z,7.50
2023-04-02T04:32:32.515Z,7.60
2023-04-02T04:35:17.855Z,7.50
2023-04-02T04:37:49.761Z,7.50
2023-04-02T04:40:34.159Z,7.50
2023-04-02T04:43:08.109Z,7.60
2023-04-02T04:46:01.257Z,7.50
2023-04-02T04:48:40.672Z,7.50
2023-04-02T04:51:27.644Z,7.50
2023-04-02T04:53:56.719Z,7.60
2023-04-02T04:56:29.905Z,7.60
2023-04-02T04:59:05.932Z,7.60
2023-04-02T05:01:47.292Z,7.60
2023-04-02T05:04:36.239Z,7.60
2023-04-02T05:07:16.726Z,7.60
2023-04-02T05:09:52.309Z,7.70
2023-04-02T05:12:35.451Z,7.70
2023-04-02T05:15:39.406Z,7.70
2023-04-02T05:18:18.467Z,7.70
2023-04-02T05:20:58.023Z,7.60
2023-04-02T05:23:38.180Z,7.60
2023-04-02T05:26:37.832Z,7.60
2023-04-02T05:29:20.782Z,7.60
2023-04-02T05:32:13.840Z,7.60
2023-04-02T05:34:42.747Z,7.60
2023-04-02T05:37:22.909Z,7.60
2023-04-02T05:40:01.037Z,7.60
2023-04-02T05:42:31.518Z,7.60
2023-04-02T05:45:02.083Z,7.60
2023-04-02T05:47:32.887Z,7.60
2023-04-02T05:50:09.602Z,7.60
2023-04-02T05:52:53.858Z,7.60
2023-04-02T05:55:33.978Z,7.60
2023-04-02T05:58:45.655Z,7.60
2023-04-02T06:01:25.200Z,7.70
2023-04-02T06:04:31.425Z,7.70
2023-04-02T06:07:22.740Z,7.80
2023-04-02T06:10:18.312Z,7.80
2023-04-02T06:12:58.239Z,7.90
2023-04-02T06:15:25.436Z,7.90
2023-04-02T06:18:17.966Z,7.90
2023-04-02T06:20:47.938Z,7.90
2023-04-02T06:23:41.981Z,7.90
2023-04-02T06:26:36.784Z,7.90
2023-04-02T06:29:11.798Z,7.90
2023-04-02T06:31:46.896Z,8.00
2023-04-02T06:34:19.307Z,8.00
2023-04-02T06:36:48.036Z,8.10
2023-04-02T06:39:22.881Z,8.10
2023-04-02T06:42:10.287Z,8.10
2023-04-02T06:44:38.579Z,8.20
2023-04-02T06:47:17.611Z,8.10
2023-04-02T06:49:55.306Z,8.20
2023-04-02T06:52:30.513Z,8.20
2023-04-02T06:54:57.885Z,8.20
2023-04-02T06:57:25.176Z,8.20
2023-04-02T06:59:52.605Z,8.20
2023-04-02T07:02:36.023Z,8.20
2023-04-02T07:05:09.366Z,8.10
2023-04-02T07:07:36.508Z,8.10
2023-04-02T07:10:05.126Z,8.20
2023-04-02T07:12:32.205Z,8.20
2023-04-02T07:14:59.329Z,8.30
2023-04-02T07:17:26.463Z,8.30
2023-04-02T07:19:53.544Z,8.30
2023-04-02T07:22:22.240Z,8.30
2023-04-02T07:24:49.546Z,8.30
2023-04-02T07:27:16.844Z,8.30
2023-04-02T07:29:46.183Z,8.30
2023-04-02T07:32:13.962Z,8.20
2023-04-02T07:34:41.678Z,8.20
2023-04-02T07:37:14.535Z,8.20
2023-04-02T07:39:41.890Z,8.20
2023-04-02T07:42:09.096Z,8.30
2023-04-02T07:44:36.406Z,8.30
2023-04-02T07:47:03.607Z,8.30
2023-04-02T07:49:30.775Z,8.30
2023-04-02T07:51:57.837Z,8.30
2023-04-02T07:54:24.999Z,8.40
2023-04-02T07:56:52.093Z,8.40
2023-04-02T07:59:19.229Z,8.40
2023-04-02T08:01:46.924Z,8.40
2023-04-02T08:04:22.818Z,8.50
2023-04-02T08:06:53.047Z,8.60
2023-04-02T08:09:20.768Z,8.90
2023-04-02T08:11:48.228Z,8.70
2023-04-02T08:14:16.150Z,8.70
2023-04-02T08:16:53.131Z,8.80
2023-04-02T08:19:20.986Z,8.80
2023-04-02T08:21:52.059Z,8.80
2023-04-02T08:24:21.151Z,8.90
2023-04-02T08:26:50.092Z,9.00
2023-04-02T08:29:17.385Z,9.10
2023-04-02T08:31:44.619Z,9.10
2023-04-02T08:34:11.954Z,9.10
2023-04-02T08:36:42.033Z,9.20
2023-04-02T08:39:12.827Z,9.20
2023-04-02T08:42:27.338Z,9.30
2023-04-02T08:45:23.093Z,9.40
2023-04-02T08:47:56.326Z,9.60
2023-04-02T08:50:38.314Z,9.70
2023-04-02T08:53:13.012Z,9.70
2023-04-02T08:55:56.114Z,9.70
2023-04-02T08:58:43.562Z,9.80
2023-04-02T09:01:41.626Z,10.10
2023-04-02T09:04:19.365Z,10.30
2023-04-02T09:06:48.685Z,10.60
2023-04-02T09:09:20.180Z,10.80
2023-04-02T09:12:04.422Z,10.90
2023-04-02T09:15:02.665Z,11.10
2023-04-02T09:17:39.746Z,11.20
2023-04-02T09:20:21.471Z,11.20
2023-04-02T09:22:52.303Z,11.10
2023-04-02T09:25:33.440Z,11.20
2023-04-02T09:28:05.038Z,11.30
2023-04-02T09:30:32.203Z,11.30
2023-04-02T09:33:07.873Z,11.10
2023-04-02T09:35:56.580Z,11.00
2023-04-02T09:38:33.240Z,10.80
2023-04-02T09:41:05.428Z,10.60
2023-04-02T09:43:35.587Z,10.30
2023-04-02T09:46:25.120Z,10.00
2023-04-02T09:49:02.630Z,9.90
2023-04-02T09:51:34.348Z,10.00
2023-04-02T09:54:04.239Z,10.10
2023-04-02T09:56:34.263Z,10.20
2023-04-02T09:59:22.069Z,10.20
2023-04-02T10:01:55.467Z,10.40
2023-04-02T10:04:47.825Z,10.60
2023-04-02T10:07:42.990Z,10.70
2023-04-02T10:10:28.197Z,10.60
2023-04-02T10:13:04.740Z,10.60
2023-04-02T10:16:09.708Z,10.50
2023-04-02T10:18:56.866Z,10.40
2023-04-02T10:21:32.584Z,9.90
2023-04-02T10:23:59.797Z,9.60
2023-04-02T10:26:52.134Z,9.30
2023-04-02T10:29:52.437Z,9.10
2023-04-02T10:32:51.236Z,8.90
2023-04-02T10:35:55.014Z,9.00
2023-04-02T10:38:45.441Z,9.10
2023-04-02T10:41:36.076Z,8.90
2023-04-02T10:44:33.177Z,8.90
2023-04-02T10:47:26.901Z,8.70
2023-04-02T10:50:38.477Z,8.70
2023-04-02T10:53:20.490Z,8.70
2023-04-02T10:55:53.821Z,8.70
2023-04-02T10:58:26.041Z,8.80
2023-04-02T11:01:02.965Z,8.90
2023-04-02T11:03:43.888Z,8.90
2023-04-02T11:06:19.863Z,8.90
2023-04-02T11:08:49.823Z,8.90
2023-04-02T11:11:25.101Z,8.80
2023-04-02T11:14:21.201Z,8.70
2023-04-02T11:16:54.091Z,8.50
2023-04-02T11:19:36.106Z,8.60
2023-04-02T11:22:25.021Z,8.70
2023-04-02T11:24:58.470Z,8.70
2023-04-02T11:27:32.119Z,8.80
2023-04-02T11:30:16.846Z,8.70
2023-04-02T11:32:50.063Z,8.60
2023-04-02T11:35:32.517Z,8.50
2023-04-02T11:38:10.584Z,8.60
2023-04-02T11:40:57.050Z,8.70
2023-04-02T11:43:33.164Z,8.70
2023-04-02T11:46:17.799Z,8.80
2023-04-02T11:48:47.436Z,8.90
2023-04-02T11:51:21.315Z,8.80
2023-04-02T11:53:50.904Z,8.80
2023-04-02T11:56:34.810Z,8.80
2023-04-02T11:59:28.919Z,8.80
2023-04-02T12:02:30.604Z,8.80
2023-04-02T12:05:26.407Z,8.90
2023-04-02T12:08:31.019Z,8.90
2023-04-02T12:11:01.781Z,8.80
2023-04-02T12:13:41.197Z,8.90
2023-04-02T12:16:13.238Z,9.10
2023-04-02T12:18:59.649Z,9.30
2023-04-02T12:21:29.839Z,9.30
2023-04-02T12:23:59.470Z,9.40
2023-04-02T12:26:37.905Z,9.50
2023-04-02T12:29:27.355Z,9.60
2023-04-02T12:31:57.308Z,9.90
2023-04-02T12:34:28.248Z,10.10
2023-04-02T12:37:04.755Z,10.30
2023-04-02T12:39:34.479Z,10.50
2023-04-02T12:42:01.787Z,10.70
2023-04-02T12:44:31.153Z,10.80
2023-04-02T12:46:59.543Z,10.80
2023-04-02T12:49:42.208Z,10.60
2023-04-02T12:52:17.343Z,10.50
2023-04-02T12:54:48.163Z,10.30
2023-04-02T12:57:30.253Z,10.40
2023-04-02T13:00:24.834Z,10.30
2023-04-02T13:02:59.926Z,10.00
2023-04-02T13:05:43.143Z,9.90
2023-04-02T13:08:28.690Z,10.00
2023-04-02T13:11:02.070Z,10.10
2023-04-02T13:13:39.211Z,9.90
2023-04-02T13:16:17.509Z,9.80
2023-04-02T13:18:48.011Z,9.60
2023-04-02T13:21:15.051Z,9.60
2023-04-02T13:23:42.668Z,9.70
2023-04-02T13:26:21.994Z,9.50
2023-04-02T13:29:24.633Z,9.50
2023-04-02T13:31:54.222Z,9.30
2023-04-02T13:34:21.571Z,9.40
2023-04-02T13:36:48.786Z,9.40
2023-04-02T13:39:16.232Z,9.20
2023-04-02T13:41:52.143Z,9.30
2023-04-02T13:44:28.650Z,9.20
2023-04-02T13:46:56.958Z,9.30
2023-04-02T13:49:25.423Z,9.40
2023-04-02T13:51:58.855Z,9.40
2023-04-02T13:54:37.373Z,9.50
2023-04-02T13:57:04.561Z,9.50
2023-04-02T13:59:31.774Z,9.40
2023-04-02T14:02:17.315Z,9.40
2023-04-02T14:04:51.136Z,9.30
2023-04-02T14:07:38.603Z,9.20
2023-04-02T14:10:36.590Z,9.20
2023-04-02T14:13:22.356Z,9.20
2023-04-02T14:16:14.618Z,9.00
2023-04-02T14:19:06.375Z,8.70
2023-04-02T14:22:07.355Z,8.40
2023-04-02T14:24:53.272Z,8.20
2023-04-02T14:27:40.487Z,8.20
2023-04-02T14:30:36.077Z,8.20
2023-04-02T14:33:51.946Z,8.30
2023-04-02T14:37:06.154Z,8.50
2023-04-02T14:39:52.715Z,8.60
2023-04-02T14:42:32.482Z,8.40
2023-04-02T14:45:07.856Z,8.30
2023-04-02T14:47:46.678Z,8.20
2023-04-02T14:50:31.192Z,8.40
2023-04-02T14:53:07.652Z,8.60
2023-04-02T14:55:43.665Z,8.70
2023-04-02T14:58:37.499Z,8.50
2023-04-02T15:01:15.404Z,8.40
2023-04-02T15:04:08.981Z,8.40
2023-04-02T15:06:45.851Z,8.30
2023-04-02T15:09:43.085Z,8.20
2023-04-02T15:12:28.276Z,8.20
2023-04-02T15:15:40.540Z,8.00
2023-04-02T15:18:17.591Z,7.80
2023-04-02T15:21:10.543Z,7.60
2023-04-02T15:24:26.010Z,7.50
2023-04-02T15:27:50.262Z,7.40
2023-04-02T15:30:23.736Z,7.30
2023-04-02T15:32:55.272Z,7.20
2023-04-02T15:35:45.783Z,7.10
2023-04-02T15:38:36.569Z,7.10
2023-04-02T15:41:27.490Z,7.10
2023-04-02T15:44:15.004Z,7.10
2023-04-02T15:47:07.575Z,7.10
2023-04-02T15:50:01.100Z,7.20
2023-04-02T15:53:07.914Z,7.20
2023-04-02T15:55:46.611Z,7.00
2023-04-02T15:58:44.421Z,6.80
2023-04-02T16:01:26.428Z,6.80
2023-04-02T16:04:22.122Z,6.90
2023-04-02T16:07:25.576Z,6.90
2023-04-02T16:10:40.064Z,6.80
2023-04-02T16:13:36.586Z,6.70
2023-04-02T16:16:21.222Z,6.60
2023-04-02T16:19:45.372Z,6.60
2023-04-02T16:22:27.767Z,6.50
2023-04-02T16:25:20.792Z,6.50
2023-04-02T16:28:01.275Z,6.50
2023-04-02T16:31:02.355Z,6.50
2023-04-02T16:34:07.980Z,6.50
2023-04-02T16:37:06.247Z,6.40
2023-04-02T16:39:53.501Z,6.30
2023-04-02T16:42:43.582Z,6.30
2023-04-02T16:45:24.226Z,6.30
2023-04-02T16:48:24.207Z,6.20
2023-04-02T16:51:24.426Z,6.10
2023-04-02T16:54:11.517Z,6.00
2023-04-02T16:57:49.278Z,6.00
2023-04-02T17:00:36.526Z,5.90
2023-04-02T17:03:39.075Z,5.90
2023-04-02T17:06:41.002Z,5.80
2023-04-02T17:09:28.121Z,5.80
2023-04-02T17:12:22.152Z,5.90
2023-04-02T17:14:58.570Z,5.80
2023-04-02T17:17:26.022Z,5.80
2023-04-02T17:19:59.247Z,5.80
2023-04-02T17:22:26.887Z,5.70
2023-04-02T17:25:00.895Z,5.70
2023-04-02T17:27:43.258Z,5.70
2023-04-02T17:30:18.441Z,5.60
2023-04-02T17:32:46.355Z,5.60
2023-04-02T17:35:23.965Z,5.50
2023-04-02T17:38:21.895Z,5.40
2023-04-02T17:41:19.815Z,5.40
2023-04-02T17:44:08.178Z,5.40
2023-04-02T17:47:08.002Z,5.30
2023-04-02T17:49:40.616Z,5.20
2023-04-02T17:52:25.821Z,5.20
2023-04-02T17:55:28.316Z,5.20
2023-04-02T17:58:01.395Z,5.20
2023-04-02T18:00:40.118Z,5.20
2023-04-02T18:03:21.956Z,5.20
2023-04-02T18:06:06.068Z,5.10
2023-04-02T18:09:06.894Z,5.00
2023-04-02T18:11:36.823Z,5.00
2023-04-02T18:14:48.737Z,5.00
2023-04-02T18:17:50.829Z,5.00
2023-04-02T18:20:37.191Z,4.90
2023-04-02T18:23:17.690Z,4.90
2023-04-02T18:25:59.562Z,4.90
2023-04-02T18:29:35.836Z,4.90
2023-04-02T18:32:32.465Z,4.90
2023-04-02T18:35:27.506Z,4.80
2023-04-02T18:38:26.718Z,4.90
2023-04-02T18:41:17.980Z,5.00
2023-04-02T18:44:09.837Z,5.00
2023-04-02T18:47:43.317Z,5.00
2023-04-02T18:50:31.725Z,4.90
2023-04-02T18:52:58.996Z,4.90
2023-04-02T18:55:32.198Z,4.90
2023-04-02T18:58:11.831Z,4.80
2023-04-02T19:00:44.485Z,4.80
2023-04-02T19:03:32.058Z,4.80
2023-04-02T19:06:03.929Z,4.80
2023-04-02T19:08:50.006Z,4.80
2023-04-02T19:11:28.862Z,4.80
2023-04-02T19:14:01.493Z,4.90
2023-04-02T19:17:00.132Z,4.80
2023-04-02T19:19:31.273Z,4.70
2023-04-02T19:22:12.255Z,4.70
2023-04-02T19:25:23.740Z,4.60
2023-04-02T19:28:07.875Z,4.50
2023-04-02T19:31:01.774Z,4.50
2023-04-02T19:33:54.542Z,4.40
2023-04-02T19:36:47.867Z,4.40
2023-04-02T19:39:36.166Z,4.40
2023-04-02T19:42:24.993Z,4.50
2023-04-02T19:44:55.164Z,4.40
2023-04-02T19:47:24.560Z,4.30
2023-04-02T19:49:52.070Z,4.30
2023-04-02T19:52:19.586Z,4.30
2023-04-02T19:54:46.813Z,4.30
2023-04-02T19:57:17.654Z,4.40
2023-04-02T19:59:44.738Z,4.40
2023-04-02T20:02:12.033Z,4.60
2023-04-02T20:04:39.292Z,4.40
2023-04-02T20:07:06.437Z,4.40
2023-04-02T20:09:33.514Z,4.30
2023-04-02T20:12:00.724Z,4.30
2023-04-02T20:14:27.940Z,4.30
2023-04-02T20:16:55.314Z,4.30
2023-04-02T20:19:23.066Z,4.30
2023-04-02T20:21:50.288Z,4.30
2023-04-02T20:24:17.380Z,4.30
2023-04-02T20:26:44.533Z,4.20
2023-04-02T20:29:12.066Z,4.20
2023-04-02T20:31:39.156Z,4.20
2023-04-02T20:34:08.580Z,4.10
2023-04-02T20:36:36.506Z,4.10
2023-04-02T20:39:07.168Z,4.10
2023-04-02T20:41:34.278Z,4.10
2023-04-02T20:44:01.334Z,4.10
2023-04-02T20:46:28.439Z,4.00
2023-04-02T20:48:55.567Z,4.00
2023-04-02T20:51:22.941Z,4.00
2023-04-02T20:53:50.037Z,4.00
2023-04-02T20:56:19.799Z,4.00
2023-04-02T20:58:46.869Z,4.00
2023-04-02T21:01:27.902Z,4.00
2023-04-02T21:04:00.700Z,4.00
2023-04-02T21:06:35.489Z,4.10
2023-04-02T21:09:07.735Z,3.90
2023-04-02T21:11:37.001Z,3.90
2023-04-02T21:14:04.426Z,3.90
2023-04-02T21:16:32.409Z,3.90
2023-04-02T21:19:10.430Z,4.00
2023-04-02T21:21:39.536Z,4.00
2023-04-02T21:24:08.823Z,4.00
2023-04-02T21:26:40.303Z,3.80
2023-04-02T21:29:07.554Z,3.80
2023-04-02T21:31:38.119Z,3.80
2023-04-02T21:34:07.404Z,3.80
2023-04-02T21:36:38.684Z,3.90
2023-04-02T21:39:09.904Z,3.90
2023-04-02T21:41:43.347Z,3.90
2023-04-02T21:44:15.117Z,4.00
2023-04-02T21:46:43.286Z,4.00
2023-04-02T21:49:21.148Z,4.00
2023-04-02T21:51:51.388Z,4.00
2023-04-02T21:54:18.994Z,4.10
2023-04-02T21:56:47.164Z,4.00
2023-04-02T21:59:16.793Z,4.00
2023-04-02T22:01:51.128Z,4.10
2023-04-02T22:04:24.721Z,4.10
2023-04-02T22:06:53.073Z,4.10
2023-04-02T22:09:23.864Z,4.10
2023-04-02T22:11:54.713Z,4.00
2023-04-02T22:14:22.496Z,3.90
2023-04-02T22:16:52.138Z,3.90
2023-04-02T22:19:21.792Z,4.00
2023-04-02T22:21:48.885Z,4.00
2023-04-02T22:24:19.071Z,4.00
2023-04-02T22:26:46.842Z,3.90
2023-04-02T22:29:14.499Z,3.90
2023-04-02T22:31:41.819Z,3.90
2023-04-02T22:34:09.227Z,3.90
2023-04-02T22:36:36.611Z,3.90
2023-04-02T22:39:07.060Z,3.70
2023-04-02T22:41:34.611Z,3.70
2023-04-02T22:44:02.618Z,3.50
2023-04-02T22:46:31.091Z,3.40
2023-04-02T22:48:58.760Z,3.30
2023-04-02T22:51:27.902Z,3.30
2023-04-02T22:53:56.629Z,3.20
2023-04-02T22:56:28.925Z,3.10
2023-04-02T22:58:56.155Z,3.10
2023-04-02T23:01:32.552Z,3.10
2023-04-02T23:03:59.942Z,3.00
2023-04-02T23:06:27.209Z,2.80
2023-04-02T23:08:54.503Z,2.80
2023-04-02T23:11:26.021Z,2.70
2023-04-02T23:13:55.854Z,2.60
2023-04-02T23:16:24.413Z,2.40
2023-04-02T23:18:52.145Z,2.20
2023-04-02T23:21:23.613Z,2.20
2023-04-02T23:23:51.543Z,1.90
2023-04-02T23:26:27.366Z,1.70
2023-04-02T23:28:54.857Z,1.60
2023-04-02T23:31:23.609Z,1.40
2023-04-02T23:33:52.242Z,1.30
2023-04-02T23:36:29.041Z,1.20
2023-04-02T23:39:04.199Z,1.20
2023-04-02T23:41:31.634Z,1.10
2023-04-02T23:43:59.455Z,1.00
2023-04-02T23:46:27.007Z,1.20
2023-04-02T23:48:55.255Z,1.30
2023-04-02T23:51:23.593Z,1.30
2023-04-02T23:53:52.966Z,1.20
2023-04-02T23:56:21.145Z,1.10
2023-04-02T23:58:50.374Z,1.00
